Nelspruit, South Africa

11:40 AM SAST on August 28, 2014 (GMT +0200)
IMPUMALA11 | Change Station
CLOSE
Current Station
Personal Weather Station
Location: Nelspruit, MPUMALANGA
Elevation: 2552 ft
Nearby Weather Stations

Elev 2552 ft 25.49 °S, 30.99 °E | Updated 1 second ago

Clear
Clear
77.4 °F
Feels Like 78 °F
N
4.0
Wind Variable Wind from SE
Gusts 4.9 mph

Today
High -- | Low -- °F
--% Chance of Precip.
Yesterday
High -- | Low -- °F
Precip. -- in
6:12 AM 5:42 PM
Waxing Crescent, 7% visible
Pressure 29.95 in
Visibility -9999.0 miles
Clouds
Heat Index 78 °F
Dew Point 39 °F
Humidity 25%
Rainfall 0.00 in
Snow Depth Not available.
UV Not available.
Pollen Not available.
Air Quality Not available.
Flu Activity Not available.
METAR FAKN 280900Z 06006KT CAVOK 27/M02 Q1014 NOSIG

More Conditions Fewer Conditions

Pressure 29.95 in
Visibility -9999.0 miles
Clouds
Heat Index 78 °F
Dew Point 39 °F
Humidity 25%
Rainfall 0.00 in
Snow Depth Not available.
UV Not available.
Pollen Not available.
Air Quality Not available.
Flu Activity Not available.
METAR FAKN 280900Z 06006KT CAVOK 27/M02 Q1014 NOSIG

More Conditions Fewer Conditions

10-Day Weather Forecast

Almanac

Astronomy

Aug. 28, 2014 Rise Set
Actual Time 6:12 AM SAST 5:42 PM SAST
Civil Twilight 5:49 AM SAST 6:06 PM SAST
Nautical Twilight 5:22 AM SAST 6:32 PM SAST
Astronomical Twilight 4:56 AM SAST 6:59 PM SAST
Moon 7:37 AM SAST 8:13 PM SAST
Length of Visible Light 12h 16m
Length of Day
11h 30m
Tomorrow will be 1m 23s longer.
Waxing Crescent, 7% of the Moon is Illuminated
Today
Waxing Crescent
Sep 2
First Quarter
Sep 8
Full
Sep 15
Last Quarter
Sep 24
New

Yesterday's Extremes

Country Highs Country Lows

Community

WunderPhotos

Upload Photos

1,747,918 photos uploaded!

Nearby

Snow Depth

Not available.

Earthquake Activity

City Distance Mag. Time & Date
No recent earthquake activity has been reported nearby.
Minimum magnitude displayed is 2.5.

Coastal Water Temperatures

Place Temperature
No Stations Reporting

Nearby Weather Stations